sensor_id;sensor_type;location;lat;lon;timestamp;pressure;altitude;pressure_sealevel;temperature;humidity
8697;BME280;4385;48.848;8.924;2022-08-18T00:00:33;97112.78;;;24.75;100.00
8697;BME280;4385;48.848;8.924;2022-08-18T00:03:03;97111.13;;;24.74;100.00
8697;BME280;4385;48.848;8.924;2022-08-18T00:05:29;97100.00;;;24.73;100.00
8697;BME280;4385;48.848;8.924;2022-08-18T00:07:56;97110.31;;;24.73;100.00
8697;BME280;4385;48.848;8.924;2022-08-18T00:10:21;97114.66;;;24.73;100.00
8697;BME280;4385;48.848;8.924;2022-08-18T00:12:46;97124.09;;;24.72;100.00
8697;BME280;4385;48.848;8.924;2022-08-18T00:15:13;97118.94;;;24.72;100.00
8697;BME280;4385;48.848;8.924;2022-08-18T00:17:39;97123.25;;;24.72;100.00
8697;BME280;4385;48.848;8.924;2022-08-18T00:20:09;97119.88;;;24.71;100.00
8697;BME280;4385;48.848;8.924;2022-08-18T00:22:36;97112.16;;;24.71;100.00
8697;BME280;4385;48.848;8.924;2022-08-18T00:25:04;97113.81;;;24.72;100.00
8697;BME280;4385;48.848;8.924;2022-08-18T00:27:30;97107.72;;;24.73;100.00
8697;BME280;4385;48.848;8.924;2022-08-18T00:29:58;97116.38;;;24.72;100.00
8697;BME280;4385;48.848;8.924;2022-08-18T00:32:30;97103.50;;;24.72;100.00
8697;BME280;4385;48.848;8.924;2022-08-18T00:35:13;97101.84;;;24.71;100.00
8697;BME280;4385;48.848;8.924;2022-08-18T00:37:40;97100.06;;;24.72;100.00
8697;BME280;4385;48.848;8.924;2022-08-18T00:40:07;97096.69;;;24.71;100.00
8697;BME280;4385;48.848;8.924;2022-08-18T00:42:41;97097.50;;;24.72;100.00
8697;BME280;4385;48.848;8.924;2022-08-18T00:45:11;97093.28;;;24.71;100.00
8697;BME280;4385;48.848;8.924;2022-08-18T00:47:37;97091.53;;;24.71;100.00
8697;BME280;4385;48.848;8.924;2022-08-18T00:50:03;97099.28;;;24.71;100.00
8697;BME280;4385;48.848;8.924;2022-08-18T00:52:28;97084.72;;;24.70;100.00
8697;BME280;4385;48.848;8.924;2022-08-18T00:54:54;97087.28;;;24.70;100.00
8697;BME280;4385;48.848;8.924;2022-08-18T00:57:21;97079.56;;;24.70;100.00
8697;BME280;4385;48.848;8.924;2022-08-18T00:59:58;97076.97;;;24.70;100.00
8697;BME280;4385;48.848;8.924;2022-08-18T01:02:34;97074.50;;;24.69;100.00
8697;BME280;4385;48.848;8.924;2022-08-18T01:07:54;97066.84;;;24.67;100.00
8697;BME280;4385;48.848;8.924;2022-08-18T01:10:22;97071.19;;;24.66;100.00
8697;BME280;4385;48.848;8.924;2022-08-18T01:12:53;97067.75;;;24.66;100.00
8697;BME280;4385;48.848;8.924;2022-08-18T01:15:20;97062.63;;;24.66;100.00
8697;BME280;4385;48.848;8.924;2022-08-18T01:17:47;97064.44;;;24.64;100.00
8697;BME280;4385;48.848;8.924;2022-08-18T01:20:38;97064.44;;;24.64;100.00
8697;BME280;4385;48.848;8.924;2022-08-18T01:23:26;97062.78;;;24.63;100.00
8697;BME280;4385;48.848;8.924;2022-08-18T01:25:52;97064.59;;;24.61;100.00
8697;BME280;4385;48.848;8.924;2022-08-18T01:28:33;97069.66;;;24.62;100.00
8697;BME280;4385;48.848;8.924;2022-08-18T01:30:59;97069.66;;;24.62;100.00
8697;BME280;4385;48.848;8.924;2022-08-18T01:33:40;97062.03;;;24.61;100.00
8697;BME280;4385;48.848;8.924;2022-08-18T01:36:18;97056.88;;;24.61;100.00
8697;BME280;4385;48.848;8.924;2022-08-18T01:38:48;97055.13;;;24.61;100.00
8697;BME280;4385;48.848;8.924;2022-08-18T01:41:16;97048.34;;;24.60;100.00
8697;BME280;4385;48.848;8.924;2022-08-18T01:43:41;97038.84;;;24.61;100.00
8697;BME280;4385;48.848;8.924;2022-08-18T01:46:07;97037.19;;;24.60;100.00
8697;BME280;4385;48.848;8.924;2022-08-18T01:48:34;97032.88;;;24.60;100.00
8697;BME280;4385;48.848;8.924;2022-08-18T01:51:04;97042.34;;;24.60;100.00
8697;BME280;4385;48.848;8.924;2022-08-18T01:53:29;97048.34;;;24.60;100.00
8697;BME280;4385;48.848;8.924;2022-08-18T01:55:55;97042.34;;;24.60;100.00
8697;BME280;4385;48.848;8.924;2022-08-18T01:58:21;97046.66;;;24.59;100.00
8697;BME280;4385;48.848;8.924;2022-08-18T02:00:52;97044.06;;;24.59;100.00
8697;BME280;4385;48.848;8.924;2022-08-18T02:03:17;97038.94;;;24.59;100.00
8697;BME280;4385;48.848;8.924;2022-08-18T02:05:46;97035.53;;;24.59;100.00
8697;BME280;4385;48.848;8.924;2022-08-18T02:08:12;97034.69;;;24.58;100.00
8697;BME280;4385;48.848;8.924;2022-08-18T02:10:39;97035.53;;;24.59;100.00
8697;BME280;4385;48.848;8.924;2022-08-18T02:13:05;97035.53;;;24.59;100.00
8697;BME280;4385;48.848;8.924;2022-08-18T02:15:31;97029.56;;;24.58;100.00
8697;BME280;4385;48.848;8.924;2022-08-18T02:17:56;97028.72;;;24.58;100.00
8697;BME280;4385;48.848;8.924;2022-08-18T02:20:22;97034.78;;;24.57;100.00
8697;BME280;4385;48.848;8.924;2022-08-18T02:22:48;97036.50;;;24.56;100.00
8697;BME280;4385;48.848;8.924;2022-08-18T02:25:14;97029.72;;;24.55;100.00
8697;BME280;4385;48.848;8.924;2022-08-18T02:27:40;97031.38;;;24.56;100.00
8697;BME280;4385;48.848;8.924;2022-08-18T02:30:08;97031.44;;;24.54;100.00
8697;BME280;4385;48.848;8.924;2022-08-18T02:32:34;97022.06;;;24.53;100.00
8697;BME280;4385;48.848;8.924;2022-08-18T02:35:00;97033.22;;;24.54;100.00
8697;BME280;4385;48.848;8.924;2022-08-18T02:37:25;97035.03;;;24.52;100.00
8697;BME280;4385;48.848;8.924;2022-08-18T02:39:50;97029.88;;;24.52;100.00
8697;BME280;4385;48.848;8.924;2022-08-18T02:42:16;97029.03;;;24.51;100.00
8697;BME280;4385;48.848;8.924;2022-08-18T02:44:42;97023.09;;;24.51;100.00
8697;BME280;4385;48.848;8.924;2022-08-18T02:47:07;97022.25;;;24.50;100.00
8697;BME280;4385;48.848;8.924;2022-08-18T02:49:33;97022.25;;;24.50;100.00
8697;BME280;4385;48.848;8.924;2022-08-18T02:52:00;97025.75;;;24.49;100.00
8697;BME280;4385;48.848;8.924;2022-08-18T02:54:25;97019.75;;;24.49;100.00
8697;BME280;4385;48.848;8.924;2022-08-18T02:56:51;97011.19;;;24.48;100.00
8697;BME280;4385;48.848;8.924;2022-08-18T02:59:20;97015.53;;;24.48;100.00
8697;BME280;4385;48.848;8.924;2022-08-18T03:01:47;97012.94;;;24.48;100.00
8697;BME280;4385;48.848;8.924;2022-08-18T03:04:19;97010.47;;;24.46;100.00
8697;BME280;4385;48.848;8.924;2022-08-18T03:06:46;97017.34;;;24.46;100.00
8697;BME280;4385;48.848;8.924;2022-08-18T03:09:14;97020.84;;;24.45;100.00
8697;BME280;4385;48.848;8.924;2022-08-18T03:11:40;97022.56;;;24.44;100.00
8697;BME280;4385;48.848;8.924;2022-08-18T03:14:06;97024.22;;;24.45;100.00
8697;BME280;4385;48.848;8.924;2022-08-18T03:16:32;97020.94;;;24.43;100.00
8697;BME280;4385;48.848;8.924;2022-08-18T03:18:59;97015.78;;;24.43;100.00
8697;BME280;4385;48.848;8.924;2022-08-18T03:21:27;97008.06;;;24.43;100.00
8697;BME280;4385;48.848;8.924;2022-08-18T03:23:53;97001.22;;;24.42;100.00
8697;BME280;4385;48.848;8.924;2022-08-18T03:26:21;96988.34;;;24.42;100.00
8697;BME280;4385;48.848;8.924;2022-08-18T03:28:49;96989.19;;;24.43;100.00
8697;BME280;4385;48.848;8.924;2022-08-18T03:31:15;96990.09;;;24.41;100.00
8697;BME280;4385;48.848;8.924;2022-08-18T03:33:42;96990.09;;;24.41;100.00
8697;BME280;4385;48.848;8.924;2022-08-18T03:36:11;96989.19;;;24.43;100.00
8697;BME280;4385;48.848;8.924;2022-08-18T03:38:38;96971.25;;;24.41;100.00
8697;BME280;4385;48.848;8.924;2022-08-18T03:41:09;96974.91;;;24.37;100.00
8697;BME280;4385;48.848;8.924;2022-08-18T03:43:34;96975.88;;;24.34;100.00
8697;BME280;4385;48.848;8.924;2022-08-18T03:46:05;96969.94;;;24.34;100.00
8697;BME280;4385;48.848;8.924;2022-08-18T03:48:31;96965.69;;;24.33;100.00
8697;BME280;4385;48.848;8.924;2022-08-18T03:51:08;96964.03;;;24.32;100.00
8697;BME280;4385;48.848;8.924;2022-08-18T03:53:35;96967.44;;;24.32;100.00
8697;BME280;4385;48.848;8.924;2022-08-18T03:56:05;96967.53;;;24.31;100.00
8697;BME280;4385;48.848;8.924;2022-08-18T03:58:31;96975.25;;;24.31;100.00
8697;BME280;4385;48.848;8.924;2022-08-18T04:00:57;96977.81;;;24.31;100.00
8697;BME280;4385;48.848;8.924;2022-08-18T04:03:22;96988.84;;;24.33;100.00
8697;BME280;4385;48.848;8.924;2022-08-18T04:05:47;96982.03;;;24.32;100.00
8697;BME280;4385;48.848;8.924;2022-08-18T04:08:12;96980.41;;;24.31;100.00
8697;BME280;4385;48.848;8.924;2022-08-18T04:10:38;96979.47;;;24.32;100.00
8697;BME280;4385;48.848;8.924;2022-08-18T04:13:03;96978.63;;;24.31;100.00
8697;BME280;4385;48.848;8.924;2022-08-18T04:15:31;96975.97;;;24.33;100.00
8697;BME280;4385;48.848;8.924;2022-08-18T04:18:01;96975.97;;;24.33;100.00
8697;BME280;4385;48.848;8.924;2022-08-18T04:20:32;96971.75;;;24.32;100.00
8697;BME280;4385;48.848;8.924;2022-08-18T04:22:58;96970.91;;;24.31;100.00
8697;BME280;4385;48.848;8.924;2022-08-18T04:25:23;96972.66;;;24.31;100.00
8697;BME280;4385;48.848;8.924;2022-08-18T04:27:50;96974.41;;;24.30;100.00
8697;BME280;4385;48.848;8.924;2022-08-18T04:30:15;96979.56;;;24.30;100.00
8697;BME280;4385;48.848;8.924;2022-08-18T04:32:41;96977.06;;;24.28;100.00
8697;BME280;4385;48.848;8.924;2022-08-18T04:35:07;96983.06;;;24.29;100.00
8697;BME280;4385;48.848;8.924;2022-08-18T04:37:33;96977.06;;;24.28;100.00
8697;BME280;4385;48.848;8.924;2022-08-18T04:40:00;96995.16;;;24.27;100.00
8697;BME280;4385;48.848;8.924;2022-08-18T04:42:25;96993.53;;;24.26;100.00
8697;BME280;4385;48.848;8.924;2022-08-18T04:44:51;96994.41;;;24.25;100.00
8697;BME280;4385;48.848;8.924;2022-08-18T04:47:16;97013.28;;;24.25;100.00
8697;BME280;4385;48.848;8.924;2022-08-18T04:49:42;97016.78;;;24.24;100.00
8697;BME280;4385;48.848;8.924;2022-08-18T04:52:09;97021.16;;;24.22;100.00
8697;BME280;4385;48.848;8.924;2022-08-18T04:54:53;97025.47;;;24.22;100.00
8697;BME280;4385;48.848;8.924;2022-08-18T04:57:19;97028.03;;;24.22;100.00
8697;BME280;4385;48.848;8.924;2022-08-18T04:59:47;97038.41;;;24.20;100.00
8697;BME280;4385;48.848;8.924;2022-08-18T05:02:14;97043.56;;;24.20;100.00
8697;BME280;4385;48.848;8.924;2022-08-18T05:04:41;97040.19;;;24.20;100.00
8697;BME280;4385;48.848;8.924;2022-08-18T05:07:08;97039.34;;;24.19;100.00
8697;BME280;4385;48.848;8.924;2022-08-18T05:09:35;97042.69;;;24.21;100.00
8697;BME280;4385;48.848;8.924;2022-08-18T05:12:02;97044.50;;;24.19;100.00
8697;BME280;4385;48.848;8.924;2022-08-18T05:14:28;97039.34;;;24.19;100.00
8697;BME280;4385;48.848;8.924;2022-08-18T05:16:57;97039.34;;;24.19;100.00
8697;BME280;4385;48.848;8.924;2022-08-18T05:19:22;97041.91;;;24.19;100.00
8697;BME280;4385;48.848;8.924;2022-08-18T05:21:49;97032.53;;;24.18;100.00
8697;BME280;4385;48.848;8.924;2022-08-18T05:24:15;97029.03;;;24.19;100.00
8697;BME280;4385;48.848;8.924;2022-08-18T05:26:42;97029.97;;;24.18;100.00
8697;BME280;4385;48.848;8.924;2022-08-18T05:29:08;97028.19;;;24.19;100.00
8697;BME280;4385;48.848;8.924;2022-08-18T05:31:34;97025.72;;;24.17;100.00
8697;BME280;4385;48.848;8.924;2022-08-18T05:33:59;97020.56;;;24.17;100.00
8697;BME280;4385;48.848;8.924;2022-08-18T05:36:54;97011.09;;;24.18;100.00
8697;BME280;4385;48.848;8.924;2022-08-18T05:39:27;97014.53;;;24.18;100.00
8697;BME280;4385;48.848;8.924;2022-08-18T05:42:07;97005.97;;;24.18;100.00
8697;BME280;4385;48.848;8.924;2022-08-18T05:44:41;97002.47;;;24.19;100.00
8697;BME280;4385;48.848;8.924;2022-08-18T05:47:31;97003.31;;;24.19;100.00
8697;BME280;4385;48.848;8.924;2022-08-18T05:50:06;96999.88;;;24.19;100.00
8697;BME280;4385;48.848;8.924;2022-08-18T05:52:49;96993.00;;;24.19;100.00
8697;BME280;4385;48.848;8.924;2022-08-18T05:58:21;96999.00;;;24.20;100.00
8697;BME280;4385;48.848;8.924;2022-08-18T06:00:55;96997.22;;;24.20;100.00
8697;BME280;4385;48.848;8.924;2022-08-18T06:03:26;96988.69;;;24.20;100.00
8697;BME280;4385;48.848;8.924;2022-08-18T06:05:58;96988.69;;;24.20;100.00
8697;BME280;4385;48.848;8.924;2022-08-18T06:08:37;96995.59;;;24.19;100.00
8697;BME280;4385;48.848;8.924;2022-08-18T06:11:04;96998.16;;;24.19;100.00
8697;BME280;4385;48.848;8.924;2022-08-18T06:13:36;96995.66;;;24.18;100.00
8697;BME280;4385;48.848;8.924;2022-08-18T06:18:53;96998.16;;;24.19;100.00
8697;BME280;4385;48.848;8.924;2022-08-18T06:25:09;97004.22;;;24.18;100.00
8697;BME280;4385;48.848;8.924;2022-08-18T06:40:39;97039.59;;;24.14;100.00
8697;BME280;4385;48.848;8.924;2022-08-18T06:43:08;97044.72;;;24.14;100.00
8697;BME280;4385;48.848;8.924;2022-08-18T06:45:36;97051.59;;;24.14;100.00
8697;BME280;4385;48.848;8.924;2022-08-18T06:48:11;97045.56;;;24.15;100.00
8697;BME280;4385;48.848;8.924;2022-08-18T06:50:41;97049.63;;;24.19;100.00
8697;BME280;4385;48.848;8.924;2022-08-18T06:53:11;97031.47;;;24.22;100.00
8697;BME280;4385;48.848;8.924;2022-08-18T06:55:41;97029.72;;;24.23;100.00
8697;BME280;4385;48.848;8.924;2022-08-18T07:01:04;97022.56;;;24.28;100.00
8697;BME280;4385;48.848;8.924;2022-08-18T07:06:27;97023.25;;;24.32;100.00
8697;BME280;4385;48.848;8.924;2022-08-18T07:08:55;97035.09;;;24.34;100.00
8697;BME280;4385;48.848;8.924;2022-08-18T07:11:39;97029.06;;;24.35;100.00
8697;BME280;4385;48.848;8.924;2022-08-18T07:14:20;97041.69;;;24.40;100.00
8697;BME280;4385;48.848;8.924;2022-08-18T07:16:46;97043.19;;;24.44;100.00
8697;BME280;4385;48.848;8.924;2022-08-18T07:19:17;97046.50;;;24.46;100.00
8697;BME280;4385;48.848;8.924;2022-08-18T07:21:46;97057.47;;;24.50;100.00
8697;BME280;4385;48.848;8.924;2022-08-18T07:24:29;97061.56;;;24.54;100.00
8697;BME280;4385;48.848;8.924;2022-08-18T07:27:17;97070.84;;;24.57;100.00
8697;BME280;4385;48.848;8.924;2022-08-18T07:35:48;97069.41;;;24.67;100.00
8697;BME280;4385;48.848;8.924;2022-08-18T07:38:21;97074.41;;;24.70;100.00
8697;BME280;4385;48.848;8.924;2022-08-18T07:40:58;97081.97;;;24.73;100.00
8697;BME280;4385;48.848;8.924;2022-08-18T07:44:00;97072.41;;;24.75;100.00
8697;BME280;4385;48.848;8.924;2022-08-18T07:46:36;97083.38;;;24.79;100.00
8697;BME280;4385;48.848;8.924;2022-08-18T07:49:05;97081.53;;;24.81;100.00
8697;BME280;4385;48.848;8.924;2022-08-18T07:51:52;97094.94;;;24.88;100.00
8697;BME280;4385;48.848;8.924;2022-08-18T07:54:31;97093.22;;;24.88;100.00
8697;BME280;4385;48.848;8.924;2022-08-18T07:57:39;97094.03;;;24.89;100.00
8697;BME280;4385;48.848;8.924;2022-08-18T08:00:23;97089.63;;;24.91;100.00
8697;BME280;4385;48.848;8.924;2022-08-18T08:06:07;97087.72;;;24.95;100.00
8697;BME280;4385;48.848;8.924;2022-08-18T08:08:44;97092.81;;;24.96;100.00
8697;BME280;4385;48.848;8.924;2022-08-18T08:11:30;97085.88;;;24.97;100.00
8697;BME280;4385;48.848;8.924;2022-08-18T08:14:02;97095.22;;;24.99;100.00
8697;BME280;4385;48.848;8.924;2022-08-18T08:22:03;97086.28;;;25.05;100.00
8697;BME280;4385;48.848;8.924;2022-08-18T08:24:38;97063.84;;;25.07;100.00
8697;BME280;4385;48.848;8.924;2022-08-18T08:30:07;97065.31;;;25.11;100.00
8697;BME280;4385;48.848;8.924;2022-08-18T08:33:04;97073.56;;;25.18;100.00
8697;BME280;4385;48.848;8.924;2022-08-18T08:41:03;97059.50;;;25.08;100.00
8697;BME280;4385;48.848;8.924;2022-08-18T08:43:33;97060.50;;;25.05;100.00
8697;BME280;4385;48.848;8.924;2022-08-18T08:48:40;97071.09;;;25.00;100.00
8697;BME280;4385;48.848;8.924;2022-08-18T08:51:30;97072.09;;;24.98;100.00
8697;BME280;4385;48.848;8.924;2022-08-18T08:54:08;97058.47;;;24.96;100.00
8697;BME280;4385;48.848;8.924;2022-08-18T08:56:43;97065.34;;;24.95;100.00
8697;BME280;4385;48.848;8.924;2022-08-18T08:59:12;97075.81;;;24.92;100.00
8697;BME280;4385;48.848;8.924;2022-08-18T09:01:54;97079.31;;;24.91;100.00
8697;BME280;4385;48.848;8.924;2022-08-18T09:07:35;97071.75;;;24.88;100.00
8697;BME280;4385;48.848;8.924;2022-08-18T09:10:23;97067.50;;;24.87;100.00
8697;BME280;4385;48.848;8.924;2022-08-18T09:16:37;97020.38;;;24.85;100.00
8697;BME280;4385;48.848;8.924;2022-08-18T09:19:29;97012.81;;;24.82;100.00
8697;BME280;4385;48.848;8.924;2022-08-18T09:22:08;96998.38;;;24.79;100.00
8697;BME280;4385;48.848;8.924;2022-08-18T09:24:46;96993.31;;;24.77;100.00
8697;BME280;4385;48.848;8.924;2022-08-18T09:30:01;97020.03;;;24.75;100.00
8697;BME280;4385;48.848;8.924;2022-08-18T09:35:31;97033.00;;;24.73;100.00
8697;BME280;4385;48.848;8.924;2022-08-18T09:38:15;97034.78;;;24.73;100.00
8697;BME280;4385;48.848;8.924;2022-08-18T09:41:23;97043.81;;;24.64;100.00
8697;BME280;4385;48.848;8.924;2022-08-18T09:44:10;97042.16;;;24.63;100.00
8697;BME280;4385;48.848;8.924;2022-08-18T09:51:57;97059.28;;;24.64;100.00
8697;BME280;4385;48.848;8.924;2022-08-18T09:54:31;97064.75;;;24.58;100.00
8697;BME280;4385;48.848;8.924;2022-08-18T10:01:57;97069.34;;;24.52;100.00
8697;BME280;4385;48.848;8.924;2022-08-18T10:04:27;97077.91;;;24.53;100.00
8697;BME280;4385;48.848;8.924;2022-08-18T10:07:13;97072.00;;;24.51;100.00
8697;BME280;4385;48.848;8.924;2022-08-18T10:10:10;97068.59;;;24.50;100.00
8697;BME280;4385;48.848;8.924;2022-08-18T10:23:43;97052.22;;;24.51;100.00
8697;BME280;4385;48.848;8.924;2022-08-18T10:29:05;97037.59;;;24.52;100.00
8697;BME280;4385;48.848;8.924;2022-08-18T10:37:15;97006.63;;;24.53;100.00
8697;BME280;4385;48.848;8.924;2022-08-18T10:39:51;97004.03;;;24.53;100.00
8697;BME280;4385;48.848;8.924;2022-08-18T10:44:44;96991.16;;;24.53;100.00
8697;BME280;4385;48.848;8.924;2022-08-18T10:47:27;96990.31;;;24.53;100.00
8697;BME280;4385;48.848;8.924;2022-08-18T10:49:54;96997.25;;;24.52;100.00
8697;BME280;4385;48.848;8.924;2022-08-18T11:00:11;96989.53;;;24.52;100.00
8697;BME280;4385;48.848;8.924;2022-08-18T11:05:23;96976.66;;;24.52;100.00
8697;BME280;4385;48.848;8.924;2022-08-18T11:07:55;96980.88;;;24.53;100.00
8697;BME280;4385;48.848;8.924;2022-08-18T11:10:41;96983.44;;;24.53;100.00
8697;BME280;4385;48.848;8.924;2022-08-18T11:18:45;96974.06;;;24.52;100.00
8697;BME280;4385;48.848;8.924;2022-08-18T11:21:32;96977.38;;;24.54;100.00
8697;BME280;4385;48.848;8.924;2022-08-18T11:26:51;96984.19;;;24.56;100.00
8697;BME280;4385;48.848;8.924;2022-08-18T11:29:36;96985.00;;;24.56;100.00
8697;BME280;4385;48.848;8.924;2022-08-18T11:32:27;96981.63;;;24.56;100.00
8697;BME280;4385;48.848;8.924;2022-08-18T11:37:26;96985.00;;;24.56;100.00
8697;BME280;4385;48.848;8.924;2022-08-18T11:39:55;96967.91;;;24.55;100.00
8697;BME280;4385;48.848;8.924;2022-08-18T11:42:33;96967.06;;;24.54;100.00
8697;BME280;4385;48.848;8.924;2022-08-18T11:45:13;96962.84;;;24.53;100.00
8697;BME280;4385;48.848;8.924;2022-08-18T11:48:15;96969.63;;;24.54;100.00
8697;BME280;4385;48.848;8.924;2022-08-18T11:53:24;96958.44;;;24.56;100.00
8697;BME280;4385;48.848;8.924;2022-08-18T12:01:46;96947.97;;;24.59;100.00
8697;BME280;4385;48.848;8.924;2022-08-18T12:06:40;96943.63;;;24.59;100.00
8697;BME280;4385;48.848;8.924;2022-08-18T12:09:37;96934.16;;;24.60;100.00
8697;BME280;4385;48.848;8.924;2022-08-18T12:12:16;96929.00;;;24.60;100.00
8697;BME280;4385;48.848;8.924;2022-08-18T12:15:00;96930.75;;;24.59;100.00
8697;BME280;4385;48.848;8.924;2022-08-18T12:17:27;96919.56;;;24.60;100.00
8697;BME280;4385;48.848;8.924;2022-08-18T12:19:53;96922.94;;;24.61;100.00
8697;BME280;4385;48.848;8.924;2022-08-18T12:22:21;96926.44;;;24.60;100.00
8697;BME280;4385;48.848;8.924;2022-08-18T12:24:48;96933.25;;;24.61;100.00
8697;BME280;4385;48.848;8.924;2022-08-18T12:27:15;96938.38;;;24.61;100.00
8697;BME280;4385;48.848;8.924;2022-08-18T12:29:41;96922.94;;;24.61;100.00
8697;BME280;4385;48.848;8.924;2022-08-18T12:32:07;96929.84;;;24.60;100.00
8697;BME280;4385;48.848;8.924;2022-08-18T12:34:33;96928.19;;;24.59;100.00
8697;BME280;4385;48.848;8.924;2022-08-18T12:36:59;96929.94;;;24.59;100.00
8697;BME280;4385;48.848;8.924;2022-08-18T12:39:29;96924.69;;;24.60;100.00
8697;BME280;4385;48.848;8.924;2022-08-18T12:41:55;96925.50;;;24.61;100.00
8697;BME280;4385;48.848;8.924;2022-08-18T12:44:21;96928.09;;;24.61;100.00
8697;BME280;4385;48.848;8.924;2022-08-18T12:46:47;96916.13;;;24.60;100.00
8697;BME280;4385;48.848;8.924;2022-08-18T12:49:23;96921.28;;;24.60;100.00
8697;BME280;4385;48.848;8.924;2022-08-18T12:51:51;96923.88;;;24.60;100.00
8697;BME280;4385;48.848;8.924;2022-08-18T12:54:18;96918.72;;;24.60;100.00
8697;BME280;4385;48.848;8.924;2022-08-18T12:56:45;96915.22;;;24.61;100.00
8697;BME280;4385;48.848;8.924;2022-08-18T12:59:12;96912.63;;;24.61;100.00
8697;BME280;4385;48.848;8.924;2022-08-18T13:01:38;96906.59;;;24.62;100.00
8697;BME280;4385;48.848;8.924;2022-08-18T13:04:05;96897.94;;;24.63;100.00
8697;BME280;4385;48.848;8.924;2022-08-18T13:06:36;96892.78;;;24.63;100.00
8697;BME280;4385;48.848;8.924;2022-08-18T13:09:03;96886.69;;;24.64;100.00
8697;BME280;4385;48.848;8.924;2022-08-18T13:11:28;96876.41;;;24.64;100.00
8697;BME280;4385;48.848;8.924;2022-08-18T13:13:53;96873.81;;;24.64;100.00
8697;BME280;4385;48.848;8.924;2022-08-18T13:16:20;96864.34;;;24.64;100.00
8697;BME280;4385;48.848;8.924;2022-08-18T13:18:46;96855.78;;;24.64;100.00
8697;BME280;4385;48.848;8.924;2022-08-18T13:21:14;96853.22;;;24.64;100.00
8697;BME280;4385;48.848;8.924;2022-08-18T13:23:40;96849.84;;;24.63;100.00
8697;BME280;4385;48.848;8.924;2022-08-18T13:26:32;96836.13;;;24.63;100.00
8697;BME280;4385;48.848;8.924;2022-08-18T13:28:55;96832.63;;;24.64;100.00
8697;BME280;4385;48.848;8.924;2022-08-18T13:31:22;96836.94;;;24.63;100.00
8697;BME280;4385;48.848;8.924;2022-08-18T13:33:47;96840.34;;;24.64;100.00
8697;BME280;4385;48.848;8.924;2022-08-18T13:36:12;96840.25;;;24.65;100.00
8697;BME280;4385;48.848;8.924;2022-08-18T13:38:38;96835.94;;;24.66;100.00
8697;BME280;4385;48.848;8.924;2022-08-18T13:41:05;96845.31;;;24.67;100.00
8697;BME280;4385;48.848;8.924;2022-08-18T13:43:35;96845.31;;;24.67;100.00
8697;BME280;4385;48.848;8.924;2022-08-18T13:46:06;96835.00;;;24.67;100.00
8697;BME280;4385;48.848;8.924;2022-08-18T13:48:32;96845.22;;;24.69;100.00
8697;BME280;4385;48.848;8.924;2022-08-18T13:50:58;96846.06;;;24.69;100.00
8697;BME280;4385;48.848;8.924;2022-08-18T13:53:26;96846.06;;;24.69;100.00
8697;BME280;4385;48.848;8.924;2022-08-18T13:55:51;96851.22;;;24.69;100.00
8697;BME280;4385;48.848;8.924;2022-08-18T13:58:17;96847.81;;;24.69;100.00
8697;BME280;4385;48.848;8.924;2022-08-18T14:00:42;96841.75;;;24.70;100.00
8697;BME280;4385;48.848;8.924;2022-08-18T14:03:08;96846.91;;;24.70;100.00
8697;BME280;4385;48.848;8.924;2022-08-18T14:05:34;96844.41;;;24.68;100.00
8697;BME280;4385;48.848;8.924;2022-08-18T14:08:00;96835.75;;;24.69;100.00
8697;BME280;4385;48.848;8.924;2022-08-18T14:10:26;96839.19;;;24.70;100.00
8697;BME280;4385;48.848;8.924;2022-08-18T14:12:54;96842.66;;;24.69;100.00
8697;BME280;4385;48.848;8.924;2022-08-18T14:15:21;96830.59;;;24.69;100.00
8697;BME280;4385;48.848;8.924;2022-08-18T14:17:47;96841.75;;;24.70;100.00
8697;BME280;4385;48.848;8.924;2022-08-18T14:20:12;96842.56;;;24.70;100.00
8697;BME280;4385;48.848;8.924;2022-08-18T14:22:57;96851.22;;;24.69;100.00
8697;BME280;4385;48.848;8.924;2022-08-18T14:25:42;96852.13;;;24.68;100.00
8697;BME280;4385;48.848;8.924;2022-08-18T14:28:30;96853.53;;;24.74;100.00
8697;BME280;4385;48.848;8.924;2022-08-18T14:30:57;96841.38;;;24.76;100.00
8697;BME280;4385;48.848;8.924;2022-08-18T14:33:25;96840.47;;;24.77;100.00
8697;BME280;4385;48.848;8.924;2022-08-18T14:35:51;96832.66;;;24.78;100.00
8697;BME280;4385;48.848;8.924;2022-08-18T14:38:17;96844.59;;;24.79;100.00
8697;BME280;4385;48.848;8.924;2022-08-18T14:40:44;96844.59;;;24.79;100.00
8697;BME280;4385;48.848;8.924;2022-08-18T14:43:11;96845.34;;;24.82;100.00
8697;BME280;4385;48.848;8.924;2022-08-18T14:45:38;96847.09;;;24.81;100.00
8697;BME280;4385;48.848;8.924;2022-08-18T14:48:04;96845.34;;;24.82;100.00
8697;BME280;4385;48.848;8.924;2022-08-18T14:50:30;96844.41;;;24.83;100.00
8697;BME280;4385;48.848;8.924;2022-08-18T14:52:56;96842.69;;;24.83;100.00
8697;BME280;4385;48.848;8.924;2022-08-18T14:55:21;96845.25;;;24.83;100.00
8697;BME280;4385;48.848;8.924;2022-08-18T14:57:46;96850.41;;;24.83;100.00
8697;BME280;4385;48.848;8.924;2022-08-18T15:00:15;96853.81;;;24.84;100.00
8697;BME280;4385;48.848;8.924;2022-08-18T15:02:45;96853.81;;;24.84;100.00
8697;BME280;4385;48.848;8.924;2022-08-18T15:05:11;96847.00;;;24.83;100.00
8697;BME280;4385;48.848;8.924;2022-08-18T15:07:37;96852.97;;;24.83;100.00
8697;BME280;4385;48.848;8.924;2022-08-18T15:10:06;96850.41;;;24.83;100.00
8697;BME280;4385;48.848;8.924;2022-08-18T15:12:31;96851.16;;;24.85;100.00
8697;BME280;4385;48.848;8.924;2022-08-18T15:14:57;96848.59;;;24.85;100.00
8697;BME280;4385;48.848;8.924;2022-08-18T15:17:24;96857.13;;;24.86;100.00
8697;BME280;4385;48.848;8.924;2022-08-18T15:19:51;96858.88;;;24.85;100.00
8697;BME280;4385;48.848;8.924;2022-08-18T15:22:17;96861.47;;;24.85;100.00
8697;BME280;4385;48.848;8.924;2022-08-18T15:25:02;96863.94;;;24.87;100.00
8697;BME280;4385;48.848;8.924;2022-08-18T15:27:46;96863.03;;;24.88;100.00
8697;BME280;4385;48.848;8.924;2022-08-18T15:30:14;96867.28;;;24.89;100.00
8697;BME280;4385;48.848;8.924;2022-08-18T15:32:46;96865.59;;;24.88;100.00
8697;BME280;4385;48.848;8.924;2022-08-18T15:35:13;96868.94;;;24.90;100.00
8697;BME280;4385;48.848;8.924;2022-08-18T15:37:43;96857.81;;;24.89;100.00
8697;BME280;4385;48.848;8.924;2022-08-18T15:42:46;96862.13;;;24.89;100.00
8697;BME280;4385;48.848;8.924;2022-08-18T15:45:19;96862.19;;;24.87;100.00